2020-04-02 - 06:02:00

SR: 0500 - SS: 1805

RWY: 25


OBSERVATION: n/a

RVR Mean 1 min: (Runway Visual Range)
A: P2000 - B: P2000 - C: P2000
RVR Mean 10 min:
A: P2000 - B: P2000 - C: P2000
WARNING: n/a
W25: 160-240(220-03kt) 01kt-05kt
W07: 170-250(200-03kt) 01kt-04kt
OTHER: n/a

QFE: (tatsächlicher Luftdruck) 1008.9 hPa = 29.76 inHg
QNH:(Luftdruck auf Meereshöhe) 1014.7 hPa = 29.94 inHg
Temperatur: 4.8 °C
Dew point(Taupunkt): 1.4 °C

METAR:  00337 SADL31 EDDG 020550 METAR EDDG 020550Z 21003KT 170V230 CAVOK 05/01 Q1014 NOSIG= 
METAR (aus weather.noaa.gov):
2020/04/02 05:50 EDDG 020550Z 21003KT 170V230 CAVOK 05/01 Q1014 NOSIG 0

TAF (aus weather.noaa.gov):
2020/04/02 06:27 TAF EDDG 020500Z 0206/0306 22005KT 9999 SCT040 BECMG 0208/0211 24012KT BECMG 0300/0303 27007KT PROB30 TEMPO 0302/0306 BKN010 0
NOWCAST
368
FODL44 EDDG 020500
FODL44 EDDG 2004020505
# Nowcasting EDDG 02.04.2020 05:05 UTC
Parameter/Stunde06070809101112
Windrichtung220230230240240240240
Windgeschwindigkeit456891012
Böen--------------
Lufttemperatur 3 4 5 7 8 8 9
Taupunkt 1 1 1 1 1 0 0
Belagstemperatur 2 4 6 9101111
Wetter-vorherrschend--------------
QNH1015101510151014101410131012
Wind in 5000 ft280/10270/10260/10260/10260/10250/10250/15
Wind in 3000 ft270/10260/15260/15260/10260/15250/10250/15
Wind in 2000 ft270/10280/15280/15270/15250/10250/15250/15
Wind in 1000 ft280/10280/10270/10260/10250/10250/15250/15